Time;durP1;ratioP1;P1;durP2;ratioP2;P2;SDS_P1;SDS_P2;PMS_P1;PMS_P2;Temp;Humidity;BMP_temperature;BMP_pressure;BME280_temperature;BME280_humidity;BME280_pressure;Samples;Min_cycle;Max_cycle;Signal;HPM_P1;HPM_P2
2022/03/26 00:00:30;;;;;;;38.80;18.17;;;;;;;2.05;86.57;99420.13;5077315;28;20024;-70
2022/03/26 00:02:56;;;;;;;48.90;19.25;;;;;;;2.17;86.53;99425.66;5078139;28;20263;-70
2022/03/26 00:05:21;;;;;;;38.47;17.98;;;;;;;2.15;86.42;99427.31;5080634;28;20212;-70
2022/03/26 00:07:47;;;;;;;37.42;18.23;;;;;;;2.10;86.27;99435.03;5076084;28;20016;-70
2022/03/26 00:10:12;;;;;;;45.13;19.48;;;;;;;2.05;86.13;99426.22;5077305;28;20016;-70
2022/03/26 00:12:39;;;;;;;36.30;17.35;;;;;;;1.85;86.18;99421.34;5074422;28;20017;-70
2022/03/26 00:15:06;;;;;;;47.95;19.13;;;;;;;1.94;86.88;99429.38;5073219;28;20032;-70
2022/03/26 00:17:31;;;;;;;43.33;18.13;;;;;;;1.86;86.81;99433.47;5070264;28;20100;-70
2022/03/26 00:19:57;;;;;;;45.05;20.50;;;;;;;1.82;88.01;99431.63;5066763;28;20304;-70
2022/03/26 00:22:23;;;;;;;52.80;23.13;;;;;;;1.80;88.16;99439.38;5076677;28;20008;-70
2022/03/26 00:24:48;;;;;;;44.20;19.35;;;;;;;1.73;87.88;99428.78;5073000;28;20382;-70
2022/03/26 00:27:15;;;;;;;47.85;20.23;;;;;;;1.85;87.82;99434.31;5072003;28;20036;-70
2022/03/26 00:29:40;;;;;;;47.55;19.50;;;;;;;1.82;87.13;99436.81;5078147;28;20256;-70
2022/03/26 00:32:07;;;;;;;39.97;18.70;;;;;;;1.70;86.90;99432.19;5074274;28;20031;-70
2022/03/26 00:34:33;;;;;;;45.05;19.35;;;;;;;1.70;86.70;99436.47;5075191;28;20364;-70
2022/03/26 00:36:59;;;;;;;43.67;19.02;;;;;;;1.61;86.84;99425.81;5069379;28;20024;-70
2022/03/26 00:39:25;;;;;;;39.72;16.90;;;;;;;1.64;87.04;99436.28;5070365;28;20216;-70
2022/03/26 00:41:51;;;;;;;44.47;19.55;;;;;;;1.68;87.27;99446.81;5075991;28;20021;-70
2022/03/26 00:44:17;;;;;;;37.78;18.67;;;;;;;1.55;86.96;99441.25;5072146;28;20341;-70
2022/03/26 00:46:45;;;;;;;40.78;20.20;;;;;;;1.54;87.17;99439.47;5077641;28;20048;-70
2022/03/26 00:49:11;;;;;;;44.92;18.00;;;;;;;1.47;87.21;99442.72;5085296;28;20033;-70
2022/03/26 00:51:37;;;;;;;40.38;18.05;;;;;;;1.40;87.43;99440.81;5078500;28;20196;-70
2022/03/26 00:54:02;;;;;;;43.65;17.25;;;;;;;1.37;87.75;99438.13;5078839;28;20041;-70
2022/03/26 00:56:28;;;;;;;37.03;16.73;;;;;;;1.34;88.00;99445.81;5073169;28;20024;-70
2022/03/26 00:58:53;;;;;;;37.08;16.48;;;;;;;1.30;87.85;99438.78;5090914;28;20031;-70
2022/03/26 01:01:19;;;;;;;42.60;19.90;;;;;;;1.30;87.90;99446.56;5080851;28;20323;-70
2022/03/26 01:03:44;;;;;;;47.03;19.77;;;;;;;1.26;88.32;99442.09;5079448;28;20021;-70
2022/03/26 01:06:10;;;;;;;43.75;19.98;;;;;;;1.26;87.84;99436.91;5071546;28;20028;-70
2022/03/26 01:08:35;;;;;;;44.60;18.65;;;;;;;1.27;87.95;99433.50;5085598;28;20020;-70
2022/03/26 01:11:01;;;;;;;46.55;18.65;;;;;;;1.20;87.84;99434.16;5077060;28;20028;-70
2022/03/26 01:13:27;;;;;;;37.53;16.15;;;;;;;1.22;88.74;99437.66;5075835;28;20028;-70
2022/03/26 01:15:53;;;;;;;36.60;18.00;;;;;;;1.18;88.75;99434.09;5032762;28;1201742;-71
2022/03/26 01:18:18;;;;;;;44.53;20.13;;;;;;;1.17;88.79;99436.66;5072846;28;20042;-71
2022/03/26 01:20:44;;;;;;;43.53;19.25;;;;;;;1.08;88.58;99436.38;5075262;28;20028;-70
2022/03/26 01:23:10;;;;;;;48.10;19.60;;;;;;;1.01;88.73;99431.84;5077291;28;20040;-70
2022/03/26 01:25:36;;;;;;;44.38;18.95;;;;;;;0.96;89.30;99431.69;5085014;28;20316;-70
2022/03/26 01:28:01;;;;;;;47.17;20.17;;;;;;;0.98;89.71;99434.34;5080222;28;20016;-70
2022/03/26 01:30:27;;;;;;;40.53;17.65;;;;;;;1.00;90.10;99432.66;5078803;28;20027;-70
2022/03/26 01:32:53;;;;;;;41.42;18.48;;;;;;;1.01;89.99;99435.28;5073292;28;20024;-70
2022/03/26 01:35:19;;;;;;;44.25;18.80;;;;;;;1.06;90.63;99432.84;5086733;28;20027;-70
2022/03/26 01:37:44;;;;;;;30.63;16.27;;;;;;;1.04;89.37;99430.19;5073783;28;20041;-70
2022/03/26 01:40:10;;;;;;;41.47;17.65;;;;;;;1.04;89.58;99424.16;5065595;28;20074;-70
2022/03/26 01:42:36;;;;;;;48.80;18.35;;;;;;;1.01;89.42;99431.84;5079483;28;20084;-70
2022/03/26 01:45:02;;;;;;;41.28;17.40;;;;;;;0.96;89.85;99430.81;5073048;28;20024;-70
2022/03/26 01:47:27;;;;;;;48.85;20.10;;;;;;;1.02;88.96;99425.81;5074589;28;20021;-70
2022/03/26 01:49:53;;;;;;;52.90;19.98;;;;;;;0.83;89.42;99434.75;5084303;28;20238;-70
2022/03/26 01:52:18;;;;;;;48.80;17.88;;;;;;;0.86;90.10;99428.75;5076931;28;20063;-70
2022/03/26 01:54:44;;;;;;;39.50;15.45;;;;;;;0.68;89.92;99425.59;5079350;28;20047;-70
2022/03/26 01:57:11;;;;;;;37.00;15.23;;;;;;;0.75;90.09;99425.84;5080027;28;20028;-70
2022/03/26 01:59:38;;;;;;;33.13;14.80;;;;;;;0.72;89.84;99424.84;5076778;28;20346;-70
2022/03/26 02:02:04;;;;;;;46.50;17.30;;;;;;;0.78;89.94;99425.03;5076924;28;20336;-70
2022/03/26 02:04:30;;;;;;;38.85;17.35;;;;;;;0.75;89.54;99424.94;5066715;28;20035;-70
2022/03/26 02:06:55;;;;;;;42.95;18.15;;;;;;;0.71;90.34;99423.97;5071605;28;20312;-70
2022/03/26 02:09:21;;;;;;;41.05;16.00;;;;;;;0.74;90.32;99418.00;5078743;28;20308;-70
2022/03/26 02:11:46;;;;;;;33.05;15.48;;;;;;;0.82;90.25;99426.91;5081540;28;20031;-70
2022/03/26 02:14:13;;;;;;;44.83;19.75;;;;;;;0.77;89.29;99428.47;5070544;28;20039;-70
2022/03/26 02:16:41;;;;;;;40.97;17.20;;;;;;;0.67;89.68;99426.44;5076893;28;20040;-70
2022/03/26 02:19:08;;;;;;;51.97;19.40;;;;;;;0.58;89.80;99420.94;5080199;28;20275;-70
2022/03/26 02:21:35;;;;;;;40.70;18.10;;;;;;;0.49;89.71;99418.06;5080782;28;20114;-70
2022/03/26 02:24:03;;;;;;;45.92;17.40;;;;;;;0.50;90.75;99412.94;5085771;28;20026;-70
2022/03/26 02:26:30;;;;;;;44.50;19.33;;;;;;;0.59;90.74;99414.91;5071639;28;20027;-70
2022/03/26 02:28:56;;;;;;;47.95;17.60;;;;;;;0.53;90.18;99412.16;5071693;28;20024;-70
2022/03/26 02:31:23;;;;;;;41.47;19.25;;;;;;;0.54;89.68;99416.50;5077274;28;20016;-70
2022/03/26 02:33:49;;;;;;;37.80;17.13;;;;;;;0.43;90.07;99410.97;5077073;28;20038;-70
2022/03/26 02:36:14;;;;;;;42.45;19.00;;;;;;;0.35;90.06;99416.75;5072630;28;20280;-70
2022/03/26 02:38:40;;;;;;;40.97;18.15;;;;;;;0.37;91.24;99410.78;5080992;28;20020;-70
2022/03/26 02:41:07;;;;;;;46.05;17.25;;;;;;;0.42;91.85;99417.00;5077213;28;20021;-70
2022/03/26 02:43:34;;;;;;;59.22;22.50;;;;;;;0.49;92.12;99420.66;5077969;28;20027;-70
2022/03/26 02:45:59;;;;;;;40.17;17.23;;;;;;;0.48;91.97;99408.53;5073111;28;20077;-70
2022/03/26 02:48:25;;;;;;;39.80;18.25;;;;;;;0.42;92.00;99408.34;5079272;28;20025;-70
2022/03/26 02:50:51;;;;;;;42.08;16.60;;;;;;;0.37;92.13;99415.06;5072913;28;20020;-70
2022/03/26 02:53:16;;;;;;;40.05;16.27;;;;;;;0.41;91.95;99406.59;5072330;28;20028;-70
2022/03/26 02:55:42;;;;;;;49.95;19.80;;;;;;;0.40;92.01;99404.81;5074599;28;20450;-70
2022/03/26 02:58:08;;;;;;;46.10;19.60;;;;;;;0.36;92.69;99402.94;5080509;28;20343;-70
2022/03/26 03:00:35;;;;;;;45.92;20.10;;;;;;;0.40;93.20;99404.81;5066693;28;20040;-70
2022/03/26 03:03:01;;;;;;;53.97;20.05;;;;;;;0.33;91.63;99397.66;5077287;28;20070;-70
2022/03/26 03:05:27;;;;;;;37.47;16.70;;;;;;;0.25;90.73;99400.00;5070954;28;20316;-70
2022/03/26 03:07:52;;;;;;;43.63;20.27;;;;;;;0.18;91.13;99412.72;5072230;28;20021;-70
2022/03/26 03:10:18;;;;;;;50.95;19.05;;;;;;;0.18;91.70;99410.13;5067994;28;20025;-70
2022/03/26 03:12:47;;;;;;;42.38;18.25;;;;;;;0.13;92.23;99409.97;5067791;28;20168;-70
2022/03/26 03:15:18;;;;;;;47.70;18.42;;;;;;;0.20;92.12;99411.03;5079357;28;20055;-70
2022/03/26 03:17:45;;;;;;;42.95;18.52;;;;;;;0.27;91.45;99418.19;5072156;28;20028;-70
2022/03/26 03:20:11;;;;;;;41.58;17.05;;;;;;;0.12;90.68;99412.50;5065899;28;20024;-70
2022/03/26 03:22:37;;;;;;;44.10;19.45;;;;;;;0.01;90.97;99415.59;5073713;28;20047;-70
2022/03/26 03:25:05;;;;;;;51.55;17.90;;;;;;;-0.02;91.31;99419.81;5076729;28;20020;-70
2022/03/26 03:27:30;;;;;;;52.42;17.67;;;;;;;0.03;91.13;99413.94;5074444;28;20312;-70
2022/03/26 03:29:56;;;;;;;43.22;18.55;;;;;;;0.04;91.41;99420.00;5071653;28;20029;-70
2022/03/26 03:32:21;;;;;;;39.60;15.48;;;;;;;0.07;91.26;99419.22;5073602;28;20032;-70
2022/03/26 03:34:47;;;;;;;41.72;16.48;;;;;;;0.00;91.03;99419.00;5067166;28;20028;-70
2022/03/26 03:37:12;;;;;;;48.50;17.73;;;;;;;-0.01;91.27;99417.25;5084825;28;20056;-70
2022/03/26 03:39:38;;;;;;;48.72;18.85;;;;;;;0.04;91.62;99415.69;5083266;28;20051;-70
2022/03/26 03:42:04;;;;;;;47.80;19.92;;;;;;;-0.07;91.10;99411.88;5074139;28;20016;-70
2022/03/26 03:44:29;;;;;;;48.83;19.95;;;;;;;-0.13;91.15;99410.78;5074256;28;20029;-70
2022/03/26 03:46:55;;;;;;;46.95;17.42;;;;;;;0.00;91.41;99421.59;5070202;28;20066;-70
2022/03/26 03:49:20;;;;;;;48.40;18.85;;;;;;;-0.15;91.07;99405.53;5067358;28;20088;-70
2022/03/26 03:51:46;;;;;;;51.95;19.05;;;;;;;-0.10;91.78;99411.78;5076691;28;20029;-70
2022/03/26 03:54:11;;;;;;;42.80;18.25;;;;;;;-0.02;91.20;99410.34;5069383;28;20028;-70
2022/03/26 03:56:38;;;;;;;50.03;15.98;;;;;;;-0.18;90.46;99408.03;5075920;28;20047;-70
2022/03/26 03:59:03;;;;;;;45.03;17.52;;;;;;;-0.32;90.39;99414.44;5067262;28;20217;-70
2022/03/26 04:01:29;;;;;;;33.10;14.90;;;;;;;-0.28;90.80;99416.28;5072917;28;20036;-70
2022/03/26 04:03:54;;;;;;;51.08;18.58;;;;;;;-0.14;91.17;99409.91;5079560;28;20091;-70
2022/03/26 04:06:20;;;;;;;39.80;15.82;;;;;;;-0.14;89.89;99415.09;5071409;28;20020;-70
2022/03/26 04:08:45;;;;;;;47.90;15.23;;;;;;;-0.29;90.54;99414.53;5069486;28;20027;-70
2022/03/26 04:11:11;;;;;;;42.63;19.20;;;;;;;-0.24;90.00;99413.00;5069584;28;20025;-70
2022/03/26 04:13:36;;;;;;;43.30;16.10;;;;;;;-0.22;90.01;99410.47;5072221;28;20220;-70
2022/03/26 04:16:02;;;;;;;46.85;19.80;;;;;;;-0.21;89.85;99413.13;5078161;28;20052;-70
2022/03/26 04:18:27;;;;;;;43.10;18.20;;;;;;;-0.30;90.65;99411.91;5070660;28;20076;-70
2022/03/26 04:20:53;;;;;;;52.35;19.35;;;;;;;-0.32;90.80;99414.44;5082209;28;20074;-70
2022/03/26 04:23:20;;;;;;;51.08;19.58;;;;;;;-0.31;91.32;99416.19;5077751;28;20025;-70
2022/03/26 04:25:46;;;;;;;50.65;20.35;;;;;;;-0.33;91.25;99407.50;5073907;28;20293;-70
2022/03/26 04:28:12;;;;;;;45.55;19.25;;;;;;;-0.36;91.70;99412.56;5075045;28;20020;-70
2022/03/26 04:30:37;;;;;;;39.63;16.67;;;;;;;-0.26;91.24;99409.47;5077747;28;20024;-70
2022/03/26 04:33:02;;;;;;;42.00;17.65;;;;;;;-0.33;90.54;99412.69;5075109;28;20084;-70
2022/03/26 04:35:28;;;;;;;38.15;18.52;;;;;;;-0.36;90.91;99412.56;5077251;28;20118;-70
2022/03/26 04:37:56;;;;;;;55.40;18.83;;;;;;;-0.34;91.89;99416.06;5073648;28;20021;-70
2022/03/26 04:40:22;;;;;;;48.42;18.33;;;;;;;-0.36;91.69;99412.56;5074655;28;20371;-70
2022/03/26 04:42:47;;;;;;;49.47;18.83;;;;;;;-0.32;91.31;99419.59;5073159;28;20020;-70
2022/03/26 04:45:13;;;;;;;39.30;17.17;;;;;;;-0.33;91.46;99417.84;5080399;28;20258;-70
2022/03/26 04:47:38;;;;;;;54.67;21.33;;;;;;;-0.31;91.73;99417.91;5082798;28;20020;-69
2022/03/26 04:50:06;;;;;;;46.25;18.52;;;;;;;-0.29;91.47;99414.53;5078215;28;20024;-69
2022/03/26 04:52:32;;;;;;;47.92;18.42;;;;;;;-0.40;90.45;99421.06;5076254;28;20017;-69
2022/03/26 04:54:57;;;;;;;48.22;16.10;;;;;;;-0.39;89.83;99412.47;5079554;28;20029;-69
2022/03/26 04:57:23;;;;;;;32.70;14.45;;;;;;;-0.31;90.42;99429.09;5075260;28;20085;-69
2022/03/26 04:59:48;;;;;;;51.28;19.40;;;;;;;-0.36;90.52;99432.38;5072688;28;20021;-69
2022/03/26 05:02:13;;;;;;;30.75;14.13;;;;;;;-0.45;90.91;99420.00;5080176;28;20080;-69
2022/03/26 05:04:39;;;;;;;55.25;18.60;;;;;;;-0.51;91.25;99424.03;5073945;28;20017;-69
2022/03/26 05:07:45;;;;;;;47.92;17.20;;;;;;;-0.57;89.91;99429.88;5077247;28;20024;-69
2022/03/26 05:09:51;;;;;;;43.25;18.65;;;;;;;-0.70;91.65;99430.25;5081908;28;20028;-69
2022/03/26 05:12:17;;;;;;;42.80;15.80;;;;;;;-0.64;92.29;99434.75;5078524;28;20027;-69
2022/03/26 05:14:43;;;;;;;34.55;14.23;;;;;;;-0.64;91.89;99437.34;5073550;28;20032;-69
2022/03/26 05:17:09;;;;;;;43.55;15.93;;;;;;;-0.60;92.40;99447.88;5070507;28;20021;-69
2022/03/26 05:19:34;;;;;;;38.97;15.10;;;;;;;-0.60;92.01;99442.69;5072591;28;20055;-69
2022/03/26 05:21:59;;;;;;;37.75;15.40;;;;;;;-0.51;90.86;99443.03;5073749;28;20016;-69
2022/03/26 05:24:25;;;;;;;41.13;15.68;;;;;;;-0.52;89.70;99445.56;5073666;28;20048;-69
2022/03/26 05:26:50;;;;;;;43.85;13.82;;;;;;;-0.58;90.42;99450.50;5070684;28;20370;-69
2022/03/26 05:29:16;;;;;;;48.00;14.40;;;;;;;-0.61;89.50;99440.94;5074063;28;20023;-70
2022/03/26 05:31:42;;;;;;;40.65;14.05;;;;;;;-0.60;89.57;99447.88;5074843;28;20059;-70
2022/03/26 05:34:07;;;;;;;37.03;15.43;;;;;;;-0.66;89.15;99442.47;5081205;28;20091;-70
2022/03/26 05:36:32;;;;;;;41.67;14.70;;;;;;;-0.67;90.12;99448.47;5070209;28;20080;-70
2022/03/26 05:38:58;;;;;;;30.70;13.35;;;;;;;-0.64;90.35;99446.00;5070743;28;20021;-70
2022/03/26 05:41:23;;;;;;;35.45;14.65;;;;;;;-0.69;90.69;99442.34;5078103;28;20418;-70
2022/03/26 05:43:50;;;;;;;28.65;13.65;;;;;;;-0.66;91.09;99450.22;5074726;28;20054;-70
2022/03/26 05:46:15;;;;;;;29.17;13.73;;;;;;;-0.55;91.56;99454.09;5075551;28;20048;-70
2022/03/26 05:48:41;;;;;;;45.08;15.32;;;;;;;-0.44;92.04;99465.69;5086746;28;20038;-70
2022/03/26 05:51:07;;;;;;;30.73;13.80;;;;;;;-0.15;91.80;99475.38;5070661;28;20255;-70
2022/03/26 05:53:32;;;;;;;46.97;16.08;;;;;;;0.10;89.56;99476.28;5072659;28;20411;-70
2022/03/26 05:55:58;;;;;;;43.45;14.85;;;;;;;0.43;86.72;99477.41;5069240;28;20067;-70
2022/03/26 05:58:24;;;;;;;45.92;13.95;;;;;;;0.82;84.89;99484.78;5075304;28;20094;-70
2022/03/26 06:00:49;;;;;;;56.78;14.05;;;;;;;1.23;83.59;99480.91;5081101;28;20016;-70
2022/03/26 06:03:18;;;;;;;43.15;15.75;;;;;;;1.38;82.85;99484.84;5075872;28;20304;-70
2022/03/26 06:05:45;;;;;;;41.03;15.68;;;;;;;1.79;81.86;99491.22;5071237;28;20021;-70
2022/03/26 06:08:11;;;;;;;42.95;16.55;;;;;;;1.59;81.73;99492.38;5071773;28;20016;-70
2022/03/26 06:10:36;;;;;;;33.20;13.60;;;;;;;1.59;82.54;99489.78;5075849;28;20092;-70
2022/03/26 06:13:02;;;;;;;40.65;14.25;;;;;;;1.82;82.25;99496.50;5071165;28;20079;-70
2022/03/26 06:15:27;;;;;;;38.60;15.50;;;;;;;2.01;81.67;99501.38;5069869;28;20037;-71
2022/03/26 06:17:52;;;;;;;46.55;16.48;;;;;;;2.60;80.63;99501.28;5078163;28;20025;-70
2022/03/26 06:20:18;;;;;;;41.00;15.70;;;;;;;3.22;77.54;99506.28;5067474;28;20021;-70
2022/03/26 06:22:44;;;;;;;37.20;15.40;;;;;;;3.60;75.88;99510.63;5063432;28;20129;-71
2022/03/26 06:25:09;;;;;;;42.35;17.83;;;;;;;3.68;75.32;99509.06;5074627;28;20016;-71
2022/03/26 06:27:35;;;;;;;39.05;14.95;;;;;;;4.21;74.97;99508.44;5072595;28;20048;-71
2022/03/26 06:30:00;;;;;;;41.13;15.85;;;;;;;4.69;73.51;99507.59;5075153;28;20215;-71
2022/03/26 06:32:26;;;;;;;39.47;15.55;;;;;;;5.16;72.88;99511.88;5066189;28;20078;-71
2022/03/26 06:34:51;;;;;;;53.13;18.25;;;;;;;6.19;70.18;99515.09;5073337;28;20032;-71
2022/03/26 06:37:17;;;;;;;51.55;17.45;;;;;;;6.54;67.91;99518.97;5071148;28;20035;-71
2022/03/26 06:39:42;;;;;;;44.97;17.73;;;;;;;6.80;66.84;99521.88;5068492;28;20315;-71
2022/03/26 06:42:08;;;;;;;41.25;16.05;;;;;;;7.31;66.38;99523.16;5073267;28;20242;-71
2022/03/26 06:44:33;;;;;;;45.10;15.13;;;;;;;7.87;64.31;99532.28;5063627;28;20013;-71
2022/03/26 06:46:59;;;;;;;42.13;15.23;;;;;;;8.56;61.79;99531.75;5069956;28;20032;-70
2022/03/26 06:49:27;;;;;;;37.05;16.02;;;;;;;9.19;60.22;99530.97;5073789;28;20025;-71
2022/03/26 06:51:53;;;;;;;41.67;14.18;;;;;;;9.50;57.87;99522.22;5073320;28;20109;-71
2022/03/26 06:54:18;;;;;;;42.00;14.57;;;;;;;10.17;56.90;99523.84;5073297;28;20323;-71
2022/03/26 06:56:44;;;;;;;36.22;14.85;;;;;;;10.56;57.12;99524.53;5067827;28;20032;-71
2022/03/26 06:59:09;;;;;;;34.75;14.20;;;;;;;11.19;55.91;99533.78;5069303;28;20312;-71
2022/03/26 07:01:34;;;;;;;32.88;14.02;;;;;;;11.66;54.99;99529.03;5070690;28;20024;-71
2022/03/26 07:04:00;;;;;;;32.17;12.88;;;;;;;11.87;54.31;99534.06;5076051;28;20045;-71
2022/03/26 07:06:25;;;;;;;30.83;13.38;;;;;;;12.35;52.24;99536.19;5074965;28;20080;-70
2022/03/26 07:08:51;;;;;;;25.35;12.07;;;;;;;12.53;51.96;99540.34;5065002;28;20025;-69
2022/03/26 07:11:17;;;;;;;30.88;11.82;;;;;;;12.63;50.59;99532.28;5078721;28;20027;-66
2022/03/26 07:13:42;;;;;;;29.63;12.75;;;;;;;13.30;49.38;99541.91;5078678;28;20039;-66
2022/03/26 07:16:08;;;;;;;26.40;11.32;;;;;;;13.43;48.33;99543.44;5072791;28;20167;-66
2022/03/26 07:18:34;;;;;;;24.65;11.50;;;;;;;13.56;48.39;99550.28;5072863;28;20020;-68
2022/03/26 07:21:00;;;;;;;23.45;11.20;;;;;;;14.10;46.85;99583.72;5069581;28;20332;-69
2022/03/26 07:23:27;;;;;;;26.85;11.43;;;;;;;13.67;46.57;99574.81;5070844;28;20304;-69
2022/03/26 07:25:54;;;;;;;24.42;11.35;;;;;;;14.47;45.50;99583.03;5082292;28;20371;-69
2022/03/26 07:28:20;;;;;;;24.60;11.70;;;;;;;14.38;44.86;99577.91;5074637;28;20058;-69
2022/03/26 07:30:45;;;;;;;33.50;12.75;;;;;;;14.40;44.98;99575.25;5077104;28;20016;-69
2022/03/26 07:33:11;;;;;;;24.60;11.57;;;;;;;14.90;45.71;99583.00;5072873;28;20380;-69
2022/03/26 07:35:37;;;;;;;27.35;11.23;;;;;;;15.07;43.90;99583.53;5069919;28;20367;-69
2022/03/26 07:38:02;;;;;;;26.98;13.00;;;;;;;15.17;45.19;99577.09;5077329;28;20012;-69
2022/03/26 07:40:29;;;;;;;24.95;12.40;;;;;;;14.53;43.57;99572.28;5065681;28;20312;-69
2022/03/26 07:42:54;;;;;;;25.17;13.02;;;;;;;14.76;44.82;99569.19;5075254;28;20013;-68
2022/03/26 07:45:20;;;;;;;23.77;11.77;;;;;;;15.33;44.08;99582.91;5072984;28;20021;-68
2022/03/26 07:47:45;;;;;;;27.38;12.52;;;;;;;15.86;41.18;99585.19;5074974;28;20328;-68
2022/03/26 07:50:11;;;;;;;27.33;12.20;;;;;;;15.77;40.64;99583.63;5075623;28;20020;-69
2022/03/26 07:52:36;;;;;;;26.95;13.68;;;;;;;15.77;40.85;99575.66;5067206;28;20026;-69
2022/03/26 07:55:03;;;;;;;24.67;12.32;;;;;;;15.95;40.05;99583.16;5084428;28;20024;-69
2022/03/26 07:57:29;;;;;;;24.60;12.40;;;;;;;16.32;39.88;99591.00;5091795;28;20024;-69
2022/03/26 07:59:54;;;;;;;29.67;12.18;;;;;;;16.59;39.48;99584.97;5079384;28;20054;-69
2022/03/26 08:02:19;;;;;;;24.38;11.98;;;;;;;17.15;39.97;99589.50;5078287;28;20016;-69
2022/03/26 08:04:45;;;;;;;22.60;11.32;;;;;;;16.83;38.44;99578.94;5080046;28;20020;-69
2022/03/26 08:07:11;;;;;;;26.90;12.13;;;;;;;16.51;40.00;99579.88;5075984;28;20209;-69
2022/03/26 08:09:37;;;;;;;24.42;12.32;;;;;;;16.97;40.77;99588.28;5069324;28;20021;-69
2022/03/26 08:12:03;;;;;;;21.75;11.70;;;;;;;17.25;38.90;99586.50;5075235;28;20062;-69
2022/03/26 08:14:30;;;;;;;32.00;12.40;;;;;;;16.56;39.60;99588.59;5076009;28;20031;-69
2022/03/26 08:16:56;;;;;;;23.00;11.63;;;;;;;17.43;38.95;99602.88;5082507;28;20060;-69
2022/03/26 08:19:21;;;;;;;24.70;11.63;;;;;;;17.51;38.75;99600.81;5080576;28;20029;-69
2022/03/26 08:21:47;;;;;;;26.20;12.20;;;;;;;17.87;37.44;99605.81;5079942;28;20323;-69
2022/03/26 08:24:13;;;;;;;26.98;12.23;;;;;;;17.68;37.56;99598.50;5086305;28;20038;-69
2022/03/26 08:26:39;;;;;;;27.48;12.85;;;;;;;17.63;38.08;99603.97;5076845;28;20031;-69
2022/03/26 08:29:05;;;;;;;23.67;12.52;;;;;;;17.78;39.04;99599.94;5072267;28;20040;-69
2022/03/26 08:31:31;;;;;;;25.77;13.23;;;;;;;18.47;37.25;99609.06;5077288;28;20069;-69
2022/03/26 08:33:58;;;;;;;28.30;14.00;;;;;;;18.31;36.72;99606.97;5076684;28;20024;-69
2022/03/26 08:36:24;;;;;;;28.38;12.88;;;;;;;18.22;36.46;99599.31;5080756;28;20020;-69
2022/03/26 08:38:50;;;;;;;27.02;12.23;;;;;;;19.04;35.99;99611.41;5083925;28;20021;-70
2022/03/26 08:41:19;;;;;;;23.33;12.60;;;;;;;19.69;33.09;99616.88;5076878;28;20127;-69
2022/03/26 08:43:45;;;;;;;28.02;14.35;;;;;;;18.58;33.63;99614.03;5077194;28;20035;-69
2022/03/26 08:46:11;;;;;;;34.00;14.10;;;;;;;17.82;35.33;99606.91;5081653;28;20048;-69
2022/03/26 08:48:36;;;;;;;24.98;13.18;;;;;;;18.05;34.82;99609.66;5078393;28;20024;-69
2022/03/26 08:51:03;;;;;;;30.17;14.85;;;;;;;18.60;34.58;99620.16;5077497;28;20024;-69
2022/03/26 08:53:28;;;;;;;33.38;13.70;;;;;;;18.10;33.35;99602.41;5077581;28;20324;-69
2022/03/26 08:55:54;;;;;;;27.42;13.80;;;;;;;18.73;33.75;99616.16;5074042;28;20052;-69
2022/03/26 08:58:19;;;;;;;32.15;14.68;;;;;;;18.36;34.11;99595.28;5075092;28;20024;-69
2022/03/26 09:00:47;;;;;;;33.60;14.13;;;;;;;18.65;33.87;99612.88;5074917;28;20024;-69
2022/03/26 09:03:17;;;;;;;31.23;14.60;;;;;;;18.68;32.57;99602.97;5075236;28;20208;-69
2022/03/26 09:05:43;;;;;;;28.17;13.77;;;;;;;19.24;32.40;99609.69;5080292;28;20060;-69
2022/03/26 09:08:09;;;;;;;28.35;13.48;;;;;;;18.67;34.07;99589.69;5073461;28;20036;-69
2022/03/26 09:10:35;;;;;;;29.45;13.85;;;;;;;19.15;33.15;99604.72;5072303;28;20320;-69
2022/03/26 09:13:00;;;;;;;29.00;13.70;;;;;;;18.92;33.35;99593.22;5076559;28;20020;-69
2022/03/26 09:15:26;;;;;;;31.52;14.80;;;;;;;18.69;33.30;99596.72;5070941;28;20047;-69
2022/03/26 09:17:51;;;;;;;26.10;12.55;;;;;;;19.16;34.04;99601.13;5073694;28;20028;-69
2022/03/26 09:20:17;;;;;;;34.05;14.48;;;;;;;19.10;33.31;99605.81;5073493;28;20016;-69
2022/03/26 09:22:42;;;;;;;22.77;12.27;;;;;;;19.40;33.61;99611.81;5067221;28;20021;-69
2022/03/26 09:25:08;;;;;;;29.55;14.57;;;;;;;19.70;33.25;99614.13;5070352;28;20054;-68
2022/03/26 09:27:34;;;;;;;29.80;14.55;;;;;;;19.90;32.64;99616.84;5067830;28;20021;-69
2022/03/26 09:30:00;;;;;;;31.85;15.75;;;;;;;19.40;32.71;99609.16;5073931;28;20062;-69
2022/03/26 09:32:25;;;;;;;31.75;14.27;;;;;;;19.90;32.76;99616.84;5080026;28;20020;-70
2022/03/26 09:34:51;;;;;;;27.75;14.18;;;;;;;20.19;32.65;99619.22;5077778;28;20055;-70
2022/03/26 09:37:17;;;;;;;32.35;15.25;;;;;;;20.26;32.40;99599.31;5085555;28;20024;-70
2022/03/26 09:39:43;;;;;;;34.38;16.55;;;;;;;20.64;32.09;99617.25;5070473;28;20016;-70
2022/03/26 09:42:11;;;;;;;31.45;15.20;;;;;;;20.97;32.33;99614.88;5071950;28;20051;-70
2022/03/26 09:44:37;;;;;;;30.73;15.68;;;;;;;20.78;31.83;99614.81;5078334;28;20031;-70
2022/03/26 09:47:07;;;;;;;32.53;16.75;;;;;;;20.43;31.11;99609.25;5078801;28;20032;-70
2022/03/26 09:49:32;;;;;;;34.10;16.95;;;;;;;19.73;31.73;99614.00;5075101;28;20016;-70
2022/03/26 09:51:59;;;;;;;31.75;17.02;;;;;;;20.20;31.82;99615.63;5074987;28;20027;-70
2022/03/26 09:54:25;;;;;;;31.48;16.40;;;;;;;20.47;31.89;99603.72;5074273;28;20335;-69
2022/03/26 09:56:50;;;;;;;29.98;16.45;;;;;;;20.78;33.10;99609.44;5074527;28;20017;-69
2022/03/26 09:59:23;;;;;;;28.48;16.35;;;;;;;21.18;30.96;99606.72;5085789;28;20311;-69
2022/03/26 10:01:49;;;;;;;37.65;18.45;;;;;;;20.90;31.08;99606.22;5069691;28;20016;-69
2022/03/26 10:04:20;;;;;;;29.83;15.70;;;;;;;21.67;30.43;99612.44;5076305;28;20051;-69
2022/03/26 10:06:57;;;;;;;28.80;15.80;;;;;;;20.95;30.70;99598.88;5071142;28;20316;-69
2022/03/26 10:09:36;;;;;;;33.40;17.05;;;;;;;21.57;29.60;99611.16;5064406;28;20320;-69
2022/03/26 10:12:08;;;;;;;35.50;17.88;;;;;;;21.49;30.41;99602.59;5081595;28;20046;-69
2022/03/26 10:14:37;;;;;;;;;;;;;;;21.30;30.29;99608.81;5073928;28;20033;-69
2022/03/26 10:17:18;;;;;;;30.50;17.25;;;;;;;22.07;30.77;99606.84;5075511;28;19965;-69
2022/03/26 10:19:47;;;;;;;37.15;19.17;;;;;;;21.50;29.96;99598.97;5071814;28;20023;-69
2022/03/26 10:22:26;;;;;;;41.20;19.55;;;;;;;20.77;29.73;99607.72;5071495;28;20083;-69
2022/03/26 10:24:53;;;;;;;34.25;18.10;;;;;;;20.95;30.56;99596.19;5067248;28;20230;-69
2022/03/26 10:27:19;;;;;;;35.45;18.27;;;;;;;21.39;30.13;99606.66;5070162;28;20024;-69
2022/03/26 10:32:40;;;;;;;42.05;19.88;;;;;;;20.26;30.57;99604.66;5079007;28;20566;-69
2022/03/26 10:35:23;;;;;;;37.70;18.35;;;;;;;20.02;31.42;99589.63;5077217;28;20039;-69
2022/03/26 10:37:56;;;;;;;41.17;18.25;;;;;;;20.36;31.70;99595.31;5073968;28;20016;-70
2022/03/26 10:40:26;;;;;;;38.78;19.48;;;;;;;20.31;29.81;99621.38;5079860;28;20013;-70
2022/03/26 10:43:12;;;;;;;36.42;18.33;;;;;;;20.02;30.24;99603.00;5075223;28;20215;-67
2022/03/26 10:45:52;;;;;;;36.50;19.55;;;;;;;19.97;30.53;99588.97;5076020;28;20301;-67
2022/03/26 10:48:38;;;;;;;42.70;19.85;;;;;;;19.25;31.06;99592.78;5073580;28;20020;-67
2022/03/26 10:51:13;;;;;;;34.95;18.73;;;;;;;19.52;30.91;99582.81;5080246;28;20288;-70
2022/03/26 10:53:44;;;;;;;36.28;18.75;;;;;;;20.44;30.96;99582.44;5081220;28;20367;-70
2022/03/26 10:56:11;;;;;;;40.40;18.40;;;;;;;19.75;30.81;99585.44;5077470;28;20024;-70
2022/03/26 10:58:38;;;;;;;31.70;17.33;;;;;;;20.38;30.60;99588.06;5074019;28;20032;-70
2022/03/26 11:01:05;;;;;;;35.28;17.95;;;;;;;20.33;30.30;99579.41;5078678;28;20028;-70
2022/03/26 11:03:31;;;;;;;37.92;18.85;;;;;;;19.63;30.15;99590.41;5078942;28;20066;-70
2022/03/26 11:05:57;;;;;;;35.33;18.50;;;;;;;20.01;30.44;99581.66;5079117;28;20086;-70
2022/03/26 11:08:24;;;;;;;36.40;19.02;;;;;;;20.14;29.34;99594.50;5072544;28;20398;-69
2022/03/26 11:10:54;;;;;;;35.15;17.17;;;;;;;19.94;30.17;99582.88;5074332;28;20028;-69
2022/03/26 11:13:20;;;;;;;36.05;19.45;;;;;;;19.01;30.11;99582.16;5071541;28;20215;-69
2022/03/26 11:15:49;;;;;;;39.15;19.38;;;;;;;18.99;30.78;99566.19;5071314;28;20088;-69
2022/03/26 11:18:53;;;;;;;32.20;16.88;;;;;;;19.24;32.04;99571.47;5075527;28;20029;-69
2022/03/26 11:21:35;;;;;;;37.60;17.52;;;;;;;19.48;31.35;99575.88;5067647;28;20039;-69